sensor_id;sensor_type;location;lat;lon;timestamp;pressure;altitude;pressure_sealevel;temperature;humidity
43878;BME280;29815;48.184;11.268;2023-08-24T00:01:28;95836.94;;;19.89;100.00
43878;BME280;29815;48.184;11.268;2023-08-24T00:03:58;95836.78;;;19.86;100.00
43878;BME280;29815;48.184;11.268;2023-08-24T00:06:27;95831.47;;;19.81;100.00
43878;BME280;29815;48.184;11.268;2023-08-24T00:08:57;95837.25;;;19.79;100.00
43878;BME280;29815;48.184;11.268;2023-08-24T00:11:28;95831.16;;;19.74;100.00
43878;BME280;29815;48.184;11.268;2023-08-24T00:13:58;95830.97;;;19.70;100.00
43878;BME280;29815;48.184;11.268;2023-08-24T00:16:28;95829.72;;;19.68;100.00
43878;BME280;29815;48.184;11.268;2023-08-24T00:18:57;95832.94;;;19.61;100.00
43878;BME280;29815;48.184;11.268;2023-08-24T00:21:27;95829.72;;;19.59;100.00
43878;BME280;29815;48.184;11.268;2023-08-24T00:23:57;95835.31;;;19.54;100.00
43878;BME280;29815;48.184;11.268;2023-08-24T00:26:29;95832.72;;;19.49;100.00
43878;BME280;29815;48.184;11.268;2023-08-24T00:28:59;95834.97;;;19.47;100.00
43878;BME280;29815;48.184;11.268;2023-08-24T00:31:28;95832.84;;;19.44;100.00
43878;BME280;29815;48.184;11.268;2023-08-24T00:33:59;95829.69;;;19.42;100.00
43878;BME280;29815;48.184;11.268;2023-08-24T00:36:29;95822.13;;;19.39;100.00
43878;BME280;29815;48.184;11.268;2023-08-24T00:38:59;95825.31;;;19.32;100.00
43878;BME280;29815;48.184;11.268;2023-08-24T00:41:30;95828.69;;;19.29;100.00
43878;BME280;29815;48.184;11.268;2023-08-24T00:43:59;95827.69;;;19.25;100.00
43878;BME280;29815;48.184;11.268;2023-08-24T00:46:31;95828.66;;;19.20;100.00
43878;BME280;29815;48.184;11.268;2023-08-24T00:49:01;95821.09;;;19.17;100.00
43878;BME280;29815;48.184;11.268;2023-08-24T00:51:33;95824.81;;;19.13;100.00
43878;BME280;29815;48.184;11.268;2023-08-24T00:54:05;95821.09;;;19.09;100.00
43878;BME280;29815;48.184;11.268;2023-08-24T00:56:36;95826.88;;;19.07;100.00
43878;BME280;29815;48.184;11.268;2023-08-24T00:59:06;95824.78;;;19.04;100.00
43878;BME280;29815;48.184;11.268;2023-08-24T01:01:36;95825.41;;;19.01;100.00
43878;BME280;29815;48.184;11.268;2023-08-24T01:04:07;95826.84;;;18.99;100.00
43878;BME280;29815;48.184;11.268;2023-08-24T01:06:39;95822.00;;;18.96;100.00
43878;BME280;29815;48.184;11.268;2023-08-24T01:09:08;95825.38;;;18.92;100.00
43878;BME280;29815;48.184;11.268;2023-08-24T01:11:54;95823.25;;;18.89;100.00
43878;BME280;29815;48.184;11.268;2023-08-24T01:14:39;95825.84;;;18.86;100.00
43878;BME280;29815;48.184;11.268;2023-08-24T01:17:14;95826.97;;;18.85;100.00
43878;BME280;29815;48.184;11.268;2023-08-24T01:19:46;95817.81;;;18.81;100.00
43878;BME280;29815;48.184;11.268;2023-08-24T01:22:30;95823.56;;;18.79;100.00
43878;BME280;29815;48.184;11.268;2023-08-24T01:25:10;95820.97;;;18.74;100.00
43878;BME280;29815;48.184;11.268;2023-08-24T01:27:43;95825.94;;;18.72;100.00
43878;BME280;29815;48.184;11.268;2023-08-24T01:30:13;95820.78;;;18.71;100.00
43878;BME280;29815;48.184;11.268;2023-08-24T01:32:43;95821.59;;;18.71;100.00
43878;BME280;29815;48.184;11.268;2023-08-24T01:35:12;95820.31;;;18.69;100.00
43878;BME280;29815;48.184;11.268;2023-08-24T01:37:42;95811.94;;;18.65;100.00
43878;BME280;29815;48.184;11.268;2023-08-24T01:40:17;95820.44;;;18.64;100.00
43878;BME280;29815;48.184;11.268;2023-08-24T01:42:59;95811.78;;;18.62;100.00
43878;BME280;29815;48.184;11.268;2023-08-24T01:45:33;95805.50;;;18.61;100.00
43878;BME280;29815;48.184;11.268;2023-08-24T01:48:04;95816.41;;;18.61;100.00
43878;BME280;29815;48.184;11.268;2023-08-24T01:50:34;95803.41;;;18.58;100.00
43878;BME280;29815;48.184;11.268;2023-08-24T01:53:06;95800.19;;;18.56;100.00
43878;BME280;29815;48.184;11.268;2023-08-24T01:55:35;95804.34;;;18.53;100.00
43878;BME280;29815;48.184;11.268;2023-08-24T01:58:08;95800.31;;;18.51;100.00
43878;BME280;29815;48.184;11.268;2023-08-24T02:00:38;95800.63;;;18.49;100.00
43878;BME280;29815;48.184;11.268;2023-08-24T02:03:08;95795.69;;;18.51;100.00
43878;BME280;29815;48.184;11.268;2023-08-24T02:05:37;95797.72;;;18.46;100.00
43878;BME280;29815;48.184;11.268;2023-08-24T02:08:08;95789.06;;;18.44;100.00
43878;BME280;29815;48.184;11.268;2023-08-24T02:10:37;95790.50;;;18.41;100.00
43878;BME280;29815;48.184;11.268;2023-08-24T02:13:08;95784.56;;;18.39;100.00
43878;BME280;29815;48.184;11.268;2023-08-24T02:15:38;95788.69;;;18.37;100.00
43878;BME280;29815;48.184;11.268;2023-08-24T02:18:08;95783.88;;;18.34;100.00
43878;BME280;29815;48.184;11.268;2023-08-24T02:20:38;95790.78;;;18.31;100.00
43878;BME280;29815;48.184;11.268;2023-08-24T02:23:07;95786.75;;;18.29;100.00
43878;BME280;29815;48.184;11.268;2023-08-24T02:25:42;95782.75;;;18.26;100.00
43878;BME280;29815;48.184;11.268;2023-08-24T02:28:13;95786.88;;;18.23;100.00
43878;BME280;29815;48.184;11.268;2023-08-24T02:30:43;95780.13;;;18.21;100.00
43878;BME280;29815;48.184;11.268;2023-08-24T02:33:13;95785.41;;;18.17;100.00
43878;BME280;29815;48.184;11.268;2023-08-24T02:35:42;95786.03;;;18.14;100.00
43878;BME280;29815;48.184;11.268;2023-08-24T02:38:12;95782.31;;;18.10;100.00
43878;BME280;29815;48.184;11.268;2023-08-24T02:40:42;95781.81;;;18.08;100.00
43878;BME280;29815;48.184;11.268;2023-08-24T02:43:13;95776.69;;;18.07;100.00
43878;BME280;29815;48.184;11.268;2023-08-24T02:45:42;95770.44;;;18.06;100.00
43878;BME280;29815;48.184;11.268;2023-08-24T02:48:12;95763.41;;;18.05;100.00
43878;BME280;29815;48.184;11.268;2023-08-24T02:50:46;95772.69;;;18.04;100.00
43878;BME280;29815;48.184;11.268;2023-08-24T02:53:15;95767.88;;;18.01;100.00
43878;BME280;29815;48.184;11.268;2023-08-24T02:55:45;95761.91;;;17.99;100.00
43878;BME280;29815;48.184;11.268;2023-08-24T02:58:16;95757.91;;;17.97;100.00
43878;BME280;29815;48.184;11.268;2023-08-24T03:00:45;95755.19;;;17.97;100.00
43878;BME280;29815;48.184;11.268;2023-08-24T03:03:15;95751.66;;;17.96;100.00
43878;BME280;29815;48.184;11.268;2023-08-24T03:05:54;95751.47;;;17.92;100.00
43878;BME280;29815;48.184;11.268;2023-08-24T03:08:24;95751.78;;;17.91;100.00
43878;BME280;29815;48.184;11.268;2023-08-24T03:10:54;95752.88;;;17.90;100.00
43878;BME280;29815;48.184;11.268;2023-08-24T03:13:25;95752.06;;;17.89;100.00
43878;BME280;29815;48.184;11.268;2023-08-24T03:15:56;95757.84;;;17.88;100.00
43878;BME280;29815;48.184;11.268;2023-08-24T03:18:29;95759.25;;;17.85;100.00
43878;BME280;29815;48.184;11.268;2023-08-24T03:20:59;95751.72;;;17.82;100.00
43878;BME280;29815;48.184;11.268;2023-08-24T03:23:29;95746.56;;;17.81;100.00
43878;BME280;29815;48.184;11.268;2023-08-24T03:25:58;95734.88;;;17.80;100.00
43878;BME280;29815;48.184;11.268;2023-08-24T03:28:29;95741.13;;;17.81;100.00
43878;BME280;29815;48.184;11.268;2023-08-24T03:31:00;95742.25;;;17.80;100.00
43878;BME280;29815;48.184;11.268;2023-08-24T03:33:30;95737.09;;;17.78;100.00
43878;BME280;29815;48.184;11.268;2023-08-24T03:36:01;95742.88;;;17.77;100.00
43878;BME280;29815;48.184;11.268;2023-08-24T03:38:31;95742.38;;;17.75;100.00
43878;BME280;29815;48.184;11.268;2023-08-24T03:41:01;95741.28;;;17.76;100.00
43878;BME280;29815;48.184;11.268;2023-08-24T03:43:33;95754.41;;;17.74;100.00
43878;BME280;29815;48.184;11.268;2023-08-24T03:46:05;95746.34;;;17.69;100.00
43878;BME280;29815;48.184;11.268;2023-08-24T03:48:35;95753.72;;;17.68;100.00
43878;BME280;29815;48.184;11.268;2023-08-24T03:51:04;95753.78;;;17.63;100.00
43878;BME280;29815;48.184;11.268;2023-08-24T03:53:36;95748.16;;;17.59;100.00
43878;BME280;29815;48.184;11.268;2023-08-24T03:56:07;95755.84;;;17.57;100.00
43878;BME280;29815;48.184;11.268;2023-08-24T03:58:38;95758.38;;;17.54;100.00
43878;BME280;29815;48.184;11.268;2023-08-24T04:01:10;95760.59;;;17.52;100.00
43878;BME280;29815;48.184;11.268;2023-08-24T04:03:40;95750.81;;;17.51;100.00
43878;BME280;29815;48.184;11.268;2023-08-24T04:06:10;95760.13;;;17.50;100.00
43878;BME280;29815;48.184;11.268;2023-08-24T04:08:39;95752.56;;;17.47;100.00
43878;BME280;29815;48.184;11.268;2023-08-24T04:11:09;95758.81;;;17.47;100.00
43878;BME280;29815;48.184;11.268;2023-08-24T04:13:40;95758.00;;;17.47;100.00
43878;BME280;29815;48.184;11.268;2023-08-24T04:16:09;95758.00;;;17.47;100.00
43878;BME280;29815;48.184;11.268;2023-08-24T04:18:39;95761.03;;;17.45;100.00
43878;BME280;29815;48.184;11.268;2023-08-24T04:21:09;95766.47;;;17.45;100.00
43878;BME280;29815;48.184;11.268;2023-08-24T04:23:38;95758.31;;;17.45;100.00
43878;BME280;29815;48.184;11.268;2023-08-24T04:26:13;95760.22;;;17.45;100.00
43878;BME280;29815;48.184;11.268;2023-08-24T04:28:44;95763.75;;;17.45;100.00
43878;BME280;29815;48.184;11.268;2023-08-24T04:31:13;95760.53;;;17.43;100.00
43878;BME280;29815;48.184;11.268;2023-08-24T04:33:43;95763.25;;;17.43;100.00
43878;BME280;29815;48.184;11.268;2023-08-24T04:36:13;95761.66;;;17.42;100.00
43878;BME280;29815;48.184;11.268;2023-08-24T04:38:43;95762.47;;;17.43;100.00
43878;BME280;29815;48.184;11.268;2023-08-24T04:41:16;95759.44;;;17.44;100.00
43878;BME280;29815;48.184;11.268;2023-08-24T04:43:47;95762.94;;;17.45;100.00
43878;BME280;29815;48.184;11.268;2023-08-24T04:46:16;95759.44;;;17.44;100.00
43878;BME280;29815;48.184;11.268;2023-08-24T04:48:46;95761.34;;;17.44;100.00
43878;BME280;29815;48.184;11.268;2023-08-24T04:51:17;95763.75;;;17.45;100.00
43878;BME280;29815;48.184;11.268;2023-08-24T04:53:46;95761.84;;;17.46;100.00
43878;BME280;29815;48.184;11.268;2023-08-24T04:56:16;95762.34;;;17.48;100.00
43878;BME280;29815;48.184;11.268;2023-08-24T04:58:55;95760.13;;;17.50;100.00
43878;BME280;29815;48.184;11.268;2023-08-24T05:01:25;95757.56;;;17.53;100.00
43878;BME280;29815;48.184;11.268;2023-08-24T05:03:55;95758.84;;;17.56;100.00
43878;BME280;29815;48.184;11.268;2023-08-24T05:06:25;95756.63;;;17.58;100.00
43878;BME280;29815;48.184;11.268;2023-08-24T05:08:54;95764.50;;;17.59;100.00
43878;BME280;29815;48.184;11.268;2023-08-24T05:11:27;95757.63;;;17.62;100.00
43878;BME280;29815;48.184;11.268;2023-08-24T05:13:59;95758.13;;;17.64;100.00
43878;BME280;29815;48.184;11.268;2023-08-24T05:16:29;95758.34;;;17.68;100.00
43878;BME280;29815;48.184;11.268;2023-08-24T05:18:58;95759.03;;;17.73;100.00
43878;BME280;29815;48.184;11.268;2023-08-24T05:21:28;95748.00;;;17.78;100.00
43878;BME280;29815;48.184;11.268;2023-08-24T05:23:57;95750.59;;;17.83;100.00
43878;BME280;29815;48.184;11.268;2023-08-24T05:26:27;95749.66;;;17.88;100.00
43878;BME280;29815;48.184;11.268;2023-08-24T05:28:56;95746.00;;;17.92;100.00
43878;BME280;29815;48.184;11.268;2023-08-24T05:31:27;95748.31;;;17.99;100.00
43878;BME280;29815;48.184;11.268;2023-08-24T05:33:57;95748.19;;;18.04;100.00
43878;BME280;29815;48.184;11.268;2023-08-24T05:36:26;95748.81;;;18.10;100.00
43878;BME280;29815;48.184;11.268;2023-08-24T05:38:56;95747.56;;;18.16;100.00
43878;BME280;29815;48.184;11.268;2023-08-24T05:41:34;95748.75;;;18.23;100.00
43878;BME280;29815;48.184;11.268;2023-08-24T05:44:04;95746.38;;;18.31;100.00
43878;BME280;29815;48.184;11.268;2023-08-24T05:46:35;95749.13;;;18.39;100.00
43878;BME280;29815;48.184;11.268;2023-08-24T05:49:05;95744.22;;;18.50;100.00
43878;BME280;29815;48.184;11.268;2023-08-24T05:51:35;95740.44;;;18.59;100.00
43878;BME280;29815;48.184;11.268;2023-08-24T05:54:05;95738.19;;;18.70;100.00
43878;BME280;29815;48.184;11.268;2023-08-24T05:56:35;95748.81;;;18.80;100.00
43878;BME280;29815;48.184;11.268;2023-08-24T05:59:04;95753.66;;;18.92;100.00
43878;BME280;29815;48.184;11.268;2023-08-24T06:01:35;95752.56;;;19.02;100.00
43878;BME280;29815;48.184;11.268;2023-08-24T06:04:06;95747.13;;;19.10;100.00
43878;BME280;29815;48.184;11.268;2023-08-24T06:06:36;95744.88;;;19.21;100.00
43878;BME280;29815;48.184;11.268;2023-08-24T06:09:06;95738.31;;;19.31;100.00
43878;BME280;29815;48.184;11.268;2023-08-24T06:11:38;95735.72;;;19.43;100.00
43878;BME280;29815;48.184;11.268;2023-08-24T06:14:08;95736.25;;;19.53;100.00
43878;BME280;29815;48.184;11.268;2023-08-24T06:16:39;95727.88;;;19.67;100.00
43878;BME280;29815;48.184;11.268;2023-08-24T06:19:09;95745.22;;;19.80;100.00
43878;BME280;29815;48.184;11.268;2023-08-24T06:21:39;95731.69;;;19.92;100.00
43878;BME280;29815;48.184;11.268;2023-08-24T06:24:08;95724.41;;;20.05;100.00
43878;BME280;29815;48.184;11.268;2023-08-24T06:26:38;95726.97;;;20.18;100.00
43878;BME280;29815;48.184;11.268;2023-08-24T06:29:07;95726.41;;;20.34;100.00
43878;BME280;29815;48.184;11.268;2023-08-24T06:31:38;95722.38;;;20.48;100.00
43878;BME280;29815;48.184;11.268;2023-08-24T06:34:08;95717.47;;;20.63;100.00
43878;BME280;29815;48.184;11.268;2023-08-24T06:36:37;95727.88;;;20.78;100.00
43878;BME280;29815;48.184;11.268;2023-08-24T06:39:07;95724.06;;;20.91;100.00
43878;BME280;29815;48.184;11.268;2023-08-24T06:41:37;95719.16;;;21.05;100.00
43878;BME280;29815;48.184;11.268;2023-08-24T06:44:10;95716.97;;;21.19;100.00
43878;BME280;29815;48.184;11.268;2023-08-24T06:46:41;95720.25;;;21.34;100.00
43878;BME280;29815;48.184;11.268;2023-08-24T06:49:10;95717.13;;;21.44;100.00
43878;BME280;29815;48.184;11.268;2023-08-24T06:51:40;95711.13;;;21.50;100.00
43878;BME280;29815;48.184;11.268;2023-08-24T06:54:10;95710.56;;;21.57;100.00
43878;BME280;29815;48.184;11.268;2023-08-24T06:56:39;95708.88;;;21.65;100.00
43878;BME280;29815;48.184;11.268;2023-08-24T06:59:09;95709.59;;;21.74;100.00
43878;BME280;29815;48.184;11.268;2023-08-24T07:01:42;95706.91;;;21.86;100.00
43878;BME280;29815;48.184;11.268;2023-08-24T07:04:12;95706.28;;;22.01;100.00
43878;BME280;29815;48.184;11.268;2023-08-24T07:06:41;95704.06;;;22.15;100.00
43878;BME280;29815;48.184;11.268;2023-08-24T07:09:12;95700.63;;;22.31;100.00
43878;BME280;29815;48.184;11.268;2023-08-24T07:11:41;95698.81;;;22.47;100.00
43878;BME280;29815;48.184;11.268;2023-08-24T07:14:11;95689.47;;;22.60;100.00
43878;BME280;29815;48.184;11.268;2023-08-24T07:16:42;95690.34;;;22.76;100.00
43878;BME280;29815;48.184;11.268;2023-08-24T07:19:11;95695.19;;;22.91;100.00
43878;BME280;29815;48.184;11.268;2023-08-24T07:21:42;95689.31;;;23.05;100.00
43878;BME280;29815;48.184;11.268;2023-08-24T07:24:12;95687.47;;;23.21;100.00
43878;BME280;29815;48.184;11.268;2023-08-24T07:26:41;95692.69;;;23.39;100.00
43878;BME280;29815;48.184;11.268;2023-08-24T07:29:11;95680.28;;;23.57;100.00
43878;BME280;29815;48.184;11.268;2023-08-24T07:31:42;95687.78;;;23.72;100.00
43878;BME280;29815;48.184;11.268;2023-08-24T07:34:11;95680.72;;;23.87;100.00
43878;BME280;29815;48.184;11.268;2023-08-24T07:36:41;95681.09;;;24.01;100.00
43878;BME280;29815;48.184;11.268;2023-08-24T07:39:13;95668.50;;;24.16;100.00
43878;BME280;29815;48.184;11.268;2023-08-24T07:41:43;95668.47;;;24.28;100.00
43878;BME280;29815;48.184;11.268;2023-08-24T07:44:13;95675.13;;;24.43;100.00
43878;BME280;29815;48.184;11.268;2023-08-24T07:46:44;95681.34;;;24.55;100.00
43878;BME280;29815;48.184;11.268;2023-08-24T07:49:14;95671.28;;;24.79;100.00
43878;BME280;29815;48.184;11.268;2023-08-24T07:51:43;95670.00;;;24.92;100.00
43878;BME280;29815;48.184;11.268;2023-08-24T07:54:15;95675.06;;;25.06;100.00
43878;BME280;29815;48.184;11.268;2023-08-24T07:56:45;95671.00;;;25.19;100.00
43878;BME280;29815;48.184;11.268;2023-08-24T07:59:14;95676.50;;;25.35;100.00
43878;BME280;29815;48.184;11.268;2023-08-24T08:01:45;95675.25;;;25.51;100.00
43878;BME280;29815;48.184;11.268;2023-08-24T08:04:15;95668.84;;;25.63;100.00
43878;BME280;29815;48.184;11.268;2023-08-24T08:06:45;95667.94;;;25.78;100.00
43878;BME280;29815;48.184;11.268;2023-08-24T08:09:14;95678.91;;;25.94;100.00
43878;BME280;29815;48.184;11.268;2023-08-24T08:11:44;95675.16;;;26.06;100.00
43878;BME280;29815;48.184;11.268;2023-08-24T08:14:15;95661.63;;;26.20;100.00
43878;BME280;29815;48.184;11.268;2023-08-24T08:16:45;95667.41;;;26.34;100.00
43878;BME280;29815;48.184;11.268;2023-08-24T08:19:15;95676.69;;;26.45;100.00
43878;BME280;29815;48.184;11.268;2023-08-24T08:21:47;95669.00;;;26.58;100.00
43878;BME280;29815;48.184;11.268;2023-08-24T08:24:16;95669.19;;;26.69;100.00
43878;BME280;29815;48.184;11.268;2023-08-24T08:26:53;95666.25;;;26.84;100.00
43878;BME280;29815;48.184;11.268;2023-08-24T08:29:23;95672.03;;;26.99;100.00
43878;BME280;29815;48.184;11.268;2023-08-24T08:31:54;95671.09;;;27.17;100.00
43878;BME280;29815;48.184;11.268;2023-08-24T08:34:24;95672.13;;;27.32;100.00
43878;BME280;29815;48.184;11.268;2023-08-24T08:36:53;95663.63;;;27.48;100.00
43878;BME280;29815;48.184;11.268;2023-08-24T08:39:23;95668.59;;;27.65;100.00
43878;BME280;29815;48.184;11.268;2023-08-24T08:41:52;95659.25;;;27.77;100.00
43878;BME280;29815;48.184;11.268;2023-08-24T08:44:22;95666.16;;;27.90;100.00
43878;BME280;29815;48.184;11.268;2023-08-24T08:46:53;95668.66;;;28.06;100.00
43878;BME280;29815;48.184;11.268;2023-08-24T08:49:24;95669.97;;;28.19;100.00
43878;BME280;29815;48.184;11.268;2023-08-24T08:51:53;95668.16;;;28.30;100.00
43878;BME280;29815;48.184;11.268;2023-08-24T08:54:23;95662.34;;;28.42;100.00
43878;BME280;29815;48.184;11.268;2023-08-24T08:56:55;95666.41;;;28.55;100.00
43878;BME280;29815;48.184;11.268;2023-08-24T08:59:25;95659.00;;;28.67;100.00
43878;BME280;29815;48.184;11.268;2023-08-24T09:02:01;95644.13;;;28.89;100.00
43878;BME280;29815;48.184;11.268;2023-08-24T09:04:32;95624.44;;;29.08;100.00
43878;BME280;29815;48.184;11.268;2023-08-24T09:07:03;95623.38;;;29.30;100.00
43878;BME280;29815;48.184;11.268;2023-08-24T09:09:39;95614.81;;;29.57;100.00
43878;BME280;29815;48.184;11.268;2023-08-24T09:12:09;95615.28;;;29.84;100.00
43878;BME280;29815;48.184;11.268;2023-08-24T09:14:39;95602.28;;;30.02;100.00
43878;BME280;29815;48.184;11.268;2023-08-24T09:17:13;95613.81;;;30.18;97.38
43878;BME280;29815;48.184;11.268;2023-08-24T09:19:50;95612.22;;;30.28;95.99
43878;BME280;29815;48.184;11.268;2023-08-24T09:22:20;95609.47;;;30.28;95.36
43878;BME280;29815;48.184;11.268;2023-08-24T09:24:50;95618.59;;;30.32;92.57
43878;BME280;29815;48.184;11.268;2023-08-24T09:27:21;95611.84;;;30.29;93.40
43878;BME280;29815;48.184;11.268;2023-08-24T09:29:51;95613.41;;;30.20;90.55
43878;BME280;29815;48.184;11.268;2023-08-24T09:32:23;95611.81;;;30.15;90.86
43878;BME280;29815;48.184;11.268;2023-08-24T09:34:54;95611.03;;;30.08;92.51
43878;BME280;29815;48.184;11.268;2023-08-24T09:37:24;95610.97;;;29.93;90.10
43878;BME280;29815;48.184;11.268;2023-08-24T09:40:01;95599.06;;;29.93;91.67
43878;BME280;29815;48.184;11.268;2023-08-24T09:42:39;95599.94;;;30.08;91.37
43878;BME280;29815;48.184;11.268;2023-08-24T09:45:12;95588.03;;;30.25;89.56
43878;BME280;29815;48.184;11.268;2023-08-24T09:47:50;95589.22;;;30.45;87.41
43878;BME280;29815;48.184;11.268;2023-08-24T09:50:20;95576.97;;;30.60;84.65
43878;BME280;29815;48.184;11.268;2023-08-24T09:52:53;95569.78;;;30.74;81.32
43878;BME280;29815;48.184;11.268;2023-08-24T09:55:25;95575.72;;;30.90;79.83
43878;BME280;29815;48.184;11.268;2023-08-24T09:57:56;95568.53;;;31.03;77.35
43878;BME280;29815;48.184;11.268;2023-08-24T10:00:28;95568.06;;;31.26;76.39
43878;BME280;29815;48.184;11.268;2023-08-24T10:03:01;95557.25;;;31.49;72.63
43878;BME280;29815;48.184;11.268;2023-08-24T10:05:33;95548.44;;;31.69;71.04
43878;BME280;29815;48.184;11.268;2023-08-24T10:08:24;95550.34;;;31.79;69.03
43878;BME280;29815;48.184;11.268;2023-08-24T10:10:56;95542.00;;;31.79;67.70
43878;BME280;29815;48.184;11.268;2023-08-24T10:13:36;95537.56;;;31.88;67.77
43878;BME280;29815;48.184;11.268;2023-08-24T10:16:10;95539.03;;;32.04;67.12
43878;BME280;29815;48.184;11.268;2023-08-24T10:18:44;95532.22;;;32.15;65.94
43878;BME280;29815;48.184;11.268;2023-08-24T10:21:13;95529.38;;;32.26;66.59
43878;BME280;29815;48.184;11.268;2023-08-24T10:23:46;95532.38;;;32.46;63.88
43878;BME280;29815;48.184;11.268;2023-08-24T10:26:16;95531.94;;;32.51;63.44
43878;BME280;29815;48.184;11.268;2023-08-24T10:28:47;95524.25;;;32.62;63.63
43878;BME280;29815;48.184;11.268;2023-08-24T10:31:17;95528.53;;;32.77;63.75
43878;BME280;29815;48.184;11.268;2023-08-24T10:33:49;95516.03;;;32.89;62.23
43878;BME280;29815;48.184;11.268;2023-08-24T10:36:20;95517.47;;;33.04;62.87
43878;BME280;29815;48.184;11.268;2023-08-24T10:38:55;95512.09;;;33.20;61.32
43878;BME280;29815;48.184;11.268;2023-08-24T10:41:27;95506.47;;;33.24;61.03
43878;BME280;29815;48.184;11.268;2023-08-24T10:44:05;95503.09;;;33.40;58.94
43878;BME280;29815;48.184;11.268;2023-08-24T10:46:37;95498.53;;;33.53;59.70
43878;BME280;29815;48.184;11.268;2023-08-24T10:49:08;95487.28;;;33.60;57.41
43878;BME280;29815;48.184;11.268;2023-08-24T10:51:43;95477.53;;;33.72;58.09
43878;BME280;29815;48.184;11.268;2023-08-24T10:54:15;95486.09;;;33.88;57.76
43878;BME280;29815;48.184;11.268;2023-08-24T10:56:53;95471.84;;;34.06;58.00
43878;BME280;29815;48.184;11.268;2023-08-24T10:59:25;95472.94;;;34.12;55.36
43878;BME280;29815;48.184;11.268;2023-08-24T11:02:05;95467.94;;;34.23;55.49
43878;BME280;29815;48.184;11.268;2023-08-24T11:05:16;95468.88;;;34.16;53.91
43878;BME280;29815;48.184;11.268;2023-08-24T11:07:54;95457.97;;;34.22;54.64
43878;BME280;29815;48.184;11.268;2023-08-24T11:10:30;95450.56;;;34.39;54.59
43878;BME280;29815;48.184;11.268;2023-08-24T11:13:12;95447.78;;;34.58;53.58
43878;BME280;29815;48.184;11.268;2023-08-24T11:15:44;95450.66;;;34.75;51.63
43878;BME280;29815;48.184;11.268;2023-08-24T11:18:24;95451.75;;;34.81;52.24
43878;BME280;29815;48.184;11.268;2023-08-24T11:21:00;95435.44;;;34.99;51.57
43878;BME280;29815;48.184;11.268;2023-08-24T11:23:31;95437.63;;;35.08;51.95
43878;BME280;29815;48.184;11.268;2023-08-24T11:26:01;95435.47;;;35.15;52.11
43878;BME280;29815;48.184;11.268;2023-08-24T11:28:31;95429.31;;;35.24;51.82
43878;BME280;29815;48.184;11.268;2023-08-24T11:31:00;95426.56;;;35.40;51.11
43878;BME280;29815;48.184;11.268;2023-08-24T11:33:33;95416.72;;;35.52;50.45
43878;BME280;29815;48.184;11.268;2023-08-24T11:36:05;95417.94;;;35.67;50.01
43878;BME280;29815;48.184;11.268;2023-08-24T11:38:36;95424.13;;;35.78;49.80
43878;BME280;29815;48.184;11.268;2023-08-24T11:41:11;95416.31;;;35.86;47.77
43878;BME280;29815;48.184;11.268;2023-08-24T11:43:42;95421.38;;;35.91;47.40
43878;BME280;29815;48.184;11.268;2023-08-24T11:46:12;95415.34;;;36.09;48.33
43878;BME280;29815;48.184;11.268;2023-08-24T11:48:43;95407.31;;;36.27;46.54
43878;BME280;29815;48.184;11.268;2023-08-24T11:51:15;95407.03;;;36.38;46.69
43878;BME280;29815;48.184;11.268;2023-08-24T11:54:00;95405.41;;;36.53;45.13
43878;BME280;29815;48.184;11.268;2023-08-24T11:56:30;95410.81;;;36.60;45.65
43878;BME280;29815;48.184;11.268;2023-08-24T11:59:00;95413.41;;;36.67;46.16
43878;BME280;29815;48.184;11.268;2023-08-24T12:01:30;95411.13;;;36.78;46.27
43878;BME280;29815;48.184;11.268;2023-08-24T12:04:00;95411.19;;;36.91;45.97
43878;BME280;29815;48.184;11.268;2023-08-24T12:06:31;95414.88;;;37.01;44.58
43878;BME280;29815;48.184;11.268;2023-08-24T12:09:05;95405.13;;;36.92;43.91
43878;BME280;29815;48.184;11.268;2023-08-24T12:11:36;95406.22;;;36.95;44.58
43878;BME280;29815;48.184;11.268;2023-08-24T12:14:13;95403.31;;;36.99;43.11
43878;BME280;29815;48.184;11.268;2023-08-24T12:16:46;95399.16;;;37.19;43.37
43878;BME280;29815;48.184;11.268;2023-08-24T12:19:17;95390.84;;;37.41;42.78
43878;BME280;29815;48.184;11.268;2023-08-24T12:21:51;95395.56;;;37.44;41.96
43878;BME280;29815;48.184;11.268;2023-08-24T12:24:21;95392.84;;;37.53;42.15
43878;BME280;29815;48.184;11.268;2023-08-24T12:26:56;95385.91;;;37.58;41.22
43878;BME280;29815;48.184;11.268;2023-08-24T12:29:26;95391.50;;;37.58;40.88
43878;BME280;29815;48.184;11.268;2023-08-24T12:31:57;95388.03;;;37.54;41.58
43878;BME280;29815;48.184;11.268;2023-08-24T12:34:27;95385.78;;;37.49;41.66
43878;BME280;29815;48.184;11.268;2023-08-24T12:36:58;95378.84;;;36.99;41.13
43878;BME280;29815;48.184;11.268;2023-08-24T12:39:27;95373.34;;;36.83;42.25
43878;BME280;29815;48.184;11.268;2023-08-24T12:41:57;95367.44;;;37.06;42.71
43878;BME280;29815;48.184;11.268;2023-08-24T12:44:28;95349.97;;;37.27;40.36
43878;BME280;29815;48.184;11.268;2023-08-24T12:46:58;95352.53;;;37.60;41.60
43878;BME280;29815;48.184;11.268;2023-08-24T12:49:29;95350.94;;;37.84;41.69
43878;BME280;29815;48.184;11.268;2023-08-24T12:52:00;95345.25;;;38.10;40.82
43878;BME280;29815;48.184;11.268;2023-08-24T12:54:30;95343.81;;;38.18;39.63
43878;BME280;29815;48.184;11.268;2023-08-24T12:56:59;95336.44;;;38.33;39.98
43878;BME280;29815;48.184;11.268;2023-08-24T12:59:29;95332.09;;;38.54;41.87
43878;BME280;29815;48.184;11.268;2023-08-24T13:01:58;95334.78;;;38.79;43.10
43878;BME280;29815;48.184;11.268;2023-08-24T13:04:28;95330.97;;;38.95;42.93